Japan Airlines Virtual Airport Information Service

Doha Hamad International Airport

ICAO: OTHH Country: Qatar
Latitude: 25.2731 Longitude: 51.6081
Latest Arrival : QTR1087 (OKBK-OTHH) Latest Departure : QTR11 (OTHH-EGLL)


WX CaptureLIVE
Data provided by noaa.gov | Fetched at 08:32:24

METAR : OTHH 090800Z 02009KT 9000 NSC 39/21 Q0998 NOSIG

TAF : OTHH 090501Z 0906/1012 16005KT CAVOK BECMG 0908/0910 09010KT BECMG 0917/0919 16006KT 8000 NSC TEMPO 0918/1004 4500 HZ PROB30 TEMPO 1001/1003 3500 BR BECMG 1003/1005 VRB03KT


Runway Data for OTHH
Data provided by openaviationdata.com

Runway ID Mag Var Hdg Length Elevation Surface ILS Freq ILS Id ILS Slope
16L 2.24 156° 15912 ft 13 ft Asphalt 108.7 IDE 3
34R 2.24 336° 15912 ft 13 ft Asphalt 110.1 AZM 3
16R 2.24 156° 13944 ft 13 ft Asphalt 108.1 QAT 3
34L 2.24 336° 13944 ft 13 ft Asphalt 111.9 HJJ 3

Doha Hamad International Airport, Qatar
Use only for reference purposes



Not for navigational purposes.